Wetterdaten: aktuell Montag, 24.06.2024 02:25
Datum Zeit Temp. A. Feuchte A. Luftdruck Regen Wind Richtung Richtung Taupunkt Windchill Windben
24.06.2024 02:25 14,1 C 84 % 1018,7 hPa 0,0 l/m 0,0 km/h (0 Bft) O-SO 120 11,4 C 14,1 C 0,0 km/h (0 Bft)
24.06.2024 02:20 14,1 C 84 % 1018,7 hPa 0,0 l/m 0,0 km/h (0 Bft) O-SO 120 11,4 C 14,1 C 0,0 km/h (0 Bft)
24.06.2024 02:15 14,2 C 84 % 1018,7 hPa 0,0 l/m 0,0 km/h (0 Bft) O-SO 120 11,5 C 14,2 C 0,0 km/h (0 Bft)
24.06.2024 02:10 14,3 C 83 % 1018,7 hPa 0,0 l/m 0,0 km/h (0 Bft) O-SO 120 11,5 C 14,3 C 0,0 km/h (0 Bft)
24.06.2024 02:05 14,3 C 83 % 1018,7 hPa 0,0 l/m 0,0 km/h (0 Bft) O-SO 120 11,5 C 14,3 C 0,0 km/h (0 Bft)
24.06.2024 02:00 14,4 C 83 % 1018,7 hPa 0,0 l/m 0,0 km/h (0 Bft) O-SO 120 11,5 C 14,4 C 0,0 km/h (0 Bft)
24.06.2024 01:55 14,6 C 82 % 1018,7 hPa 0,0 l/m 0,0 km/h (0 Bft) O-SO 120 11,6 C 14,6 C 0,0 km/h (0 Bft)
24.06.2024 01:50 14,7 C 82 % 1018,7 hPa 0,0 l/m 0,0 km/h (0 Bft) O-SO 119 11,7 C 14,7 C 0,0 km/h (0 Bft)
24.06.2024 01:45 14,8 C 82 % 1018,7 hPa 0,0 l/m 0,0 km/h (0 Bft) O-SO 119 11,8 C 14,8 C 0,0 km/h (0 Bft)
24.06.2024 01:40 14,9 C 81 % 1018,7 hPa 0,0 l/m 0,0 km/h (0 Bft) O-SO 119 11,7 C 14,9 C 0,0 km/h (0 Bft)
24.06.2024 01:35 15,1 C 81 % 1018,7 hPa 0,0 l/m 0,0 km/h (0 Bft) O-SO 119 11,9 C 15,1 C 0,0 km/h (0 Bft)
24.06.2024 01:30 15,2 C 80 % 1018,7 hPa 0,0 l/m 0,0 km/h (0 Bft) O-SO 119 11,8 C 15,2 C 0,0 km/h (0 Bft)
24.06.2024 01:25 15,4 C 80 % 1018,7 hPa 0,0 l/m 0,0 km/h (0 Bft) O-SO 119 12,0 C 15,4 C 0,0 km/h (0 Bft)
24.06.2024 01:20 15,6 C 80 % 1018,7 hPa 0,0 l/m 0,0 km/h (0 Bft) O-SO 119 12,2 C 15,6 C 0,0 km/h (0 Bft)
24.06.2024 01:15 15,7 C 80 % 1018,7 hPa 0,0 l/m 0,0 km/h (0 Bft) O-SO 119 12,3 C 15,7 C 0,0 km/h (0 Bft)
24.06.2024 01:10 15,8 C 79 % 1018,6 hPa 0,0 l/m 0,0 km/h (0 Bft) O-SO 119 12,2 C 15,8 C 0,0 km/h (0 Bft)
24.06.2024 01:05 15,9 C 79 % 1018,7 hPa 0,0 l/m 0,0 km/h (0 Bft) O-SO 119 12,3 C 15,9 C 0,0 km/h (0 Bft)
24.06.2024 01:00 16,1 C 78 % 1018,7 hPa 0,0 l/m 0,0 km/h (0 Bft) O-SO 119 12,3 C 16,1 C 0,0 km/h (0 Bft)
24.06.2024 00:55 16,2 C 78 % 1018,7 hPa 0,0 l/m 0,0 km/h (0 Bft) O-SO 119 12,4 C 16,2 C 0,0 km/h (0 Bft)
24.06.2024 00:50 16,2 C 78 % 1018,7 hPa 0,0 l/m 0,0 km/h (0 Bft) O-SO 119 12,4 C 16,2 C 0,0 km/h (0 Bft)
24.06.2024 00:45 16,3 C 77 % 1018,7 hPa 0,0 l/m 0,0 km/h (0 Bft) O-SO 120 12,3 C 16,3 C 0,0 km/h (0 Bft)
24.06.2024 00:40 16,3 C 77 % 1018,7 hPa 0,0 l/m 0,0 km/h (0 Bft) O-SO 120 12,3 C 16,3 C 1,6 km/h (1 Bft)
24.06.2024 00:35 16,4 C 77 % 1018,7 hPa 0,0 l/m 0,3 km/h (0 Bft) O-SO 123 12,4 C 16,4 C 3,2 km/h (1 Bft)
24.06.2024 00:30 16,4 C 77 % 1018,7 hPa 0,0 l/m 0,0 km/h (0 Bft) O 89 12,4 C 16,4 C 1,6 km/h (1 Bft)
24.06.2024 00:25 16,4 C 76 % 1018,7 hPa 0,0 l/m 0,0 km/h (0 Bft) O 79 12,2 C 16,4 C 0,0 km/h (0 Bft)
24.06.2024 00:20 16,5 C 76 % 1018,7 hPa 0,0 l/m 0,0 km/h (0 Bft) O-NO 78 12,3 C 16,5 C 0,0 km/h (0 Bft)
24.06.2024 00:15 16,6 C 75 % 1018,7 hPa 0,0 l/m 0,0 km/h (0 Bft) O-NO 78 12,1 C 16,6 C 0,0 km/h (0 Bft)
24.06.2024 00:10 16,7 C 75 % 1018,7 hPa 0,0 l/m 0,0 km/h (0 Bft) O 79 12,2 C 16,7 C 0,0 km/h (0 Bft)
24.06.2024 00:05 16,8 C 74 % 1018,6 hPa 0,0 l/m 0,0 km/h (0 Bft) O-NO 57 12,1 C 16,8 C 0,0 km/h (0 Bft)
24.06.2024 00:00 16,9 C 74 % 1018,6 hPa 0,0 l/m 0,0 km/h (0 Bft) O-NO 57 12,2 C 16,9 C 0,0 km/h (0 Bft)
23.06.2024 23:55 17,1 C 73 % 1018,5 hPa 0,0 l/m 0,0 km/h (0 Bft) O-NO 57 12,2 C 17,1 C 0,0 km/h (0 Bft)
23.06.2024 23:50 17,2 C 73 % 1018,5 hPa 0,0 l/m 0,0 km/h (0 Bft) O-NO 57 12,3 C 17,2 C 0,0 km/h (0 Bft)
23.06.2024 23:45 17,3 C 72 % 1018,5 hPa 0,0 l/m 0,0 km/h (0 Bft) NO 56 12,2 C 17,3 C 0,0 km/h (0 Bft)
23.06.2024 23:40 17,4 C 72 % 1018,5 hPa 0,0 l/m 0,0 km/h (0 Bft) NO 56 12,3 C 17,4 C 0,0 km/h (0 Bft)
23.06.2024 23:35 17,6 C 71 % 1018,4 hPa 0,0 l/m 0,0 km/h (0 Bft) NO 56 12,3 C 17,6 C 0,0 km/h (0 Bft)
23.06.2024 23:30 17,7 C 71 % 1018,4 hPa 0,0 l/m 0,2 km/h (0 Bft) NO 56 12,4 C 17,7 C 3,2 km/h (1 Bft)
23.06.2024 23:25 17,8 C 71 % 1018,4 hPa 0,0 l/m 0,2 km/h (0 Bft) NO 34 12,5 C 17,8 C 3,2 km/h (1 Bft)
23.06.2024 23:20 17,9 C 70 % 1018,4 hPa 0,0 l/m 0,0 km/h (0 Bft) NO 53 12,3 C 17,9 C 1,6 km/h (1 Bft)
23.06.2024 23:15 18,0 C 70 % 1018,4 hPa 0,0 l/m 0,0 km/h (0 Bft) O 82 12,4 C 18,0 C 0,0 km/h (0 Bft)
23.06.2024 23:10 18,1 C 70 % 1018,4 hPa 0,0 l/m 0,6 km/h (0 Bft) NO 53 12,5 C 18,1 C 4,8 km/h (1 Bft)
23.06.2024 23:05 18,1 C 70 % 1018,3 hPa 0,0 l/m 0,7 km/h (0 Bft) N-NW 344 12,5 C 18,1 C 4,8 km/h (1 Bft)
23.06.2024 23:00 18,2 C 69 % 1018,3 hPa 0,0 l/m 0,0 km/h (0 Bft) O 89 12,4 C 18,2 C 0,0 km/h (0 Bft)
23.06.2024 22:55 18,3 C 69 % 1018,3 hPa 0,0 l/m 0,5 km/h (0 Bft) NO 40 12,5 C 18,3 C 4,8 km/h (1 Bft)
23.06.2024 22:50 18,5 C 69 % 1018,3 hPa 0,0 l/m 0,0 km/h (0 Bft) N 11 12,7 C 18,5 C 1,6 km/h (1 Bft)
23.06.2024 22:45 18,6 C 69 % 1018,3 hPa 0,0 l/m 0,0 km/h (0 Bft) N-NO 14 12,8 C 18,6 C 1,6 km/h (1 Bft)
23.06.2024 22:40 18,7 C 68 % 1018,3 hPa 0,0 l/m 0,5 km/h (0 Bft) N 360 12,7 C 18,7 C 3,2 km/h (1 Bft)
23.06.2024 22:35 18,8 C 68 % 1018,3 hPa 0,0 l/m 0,1 km/h (0 Bft) O-NO 63 12,8 C 18,8 C 4,8 km/h (1 Bft)
23.06.2024 22:30 18,9 C 68 % 1018,2 hPa 0,0 l/m 0,7 km/h (0 Bft) N 349 12,9 C 18,9 C 4,8 km/h (1 Bft)
23.06.2024 22:25 19,0 C 68 % 1018,2 hPa 0,0 l/m 0,2 km/h (0 Bft) NO 39 13,0 C 19,0 C 3,2 km/h (1 Bft)
23.06.2024 22:20 19,1 C 67 % 1018,2 hPa 0,0 l/m 0,5 km/h (0 Bft) N-NO 19 12,8 C 19,1 C 6,4 km/h (2 Bft)
23.06.2024 22:15 19,2 C 67 % 1018,2 hPa 0,0 l/m 0,6 km/h (0 Bft) N-NO 26 12,9 C 19,2 C 6,4 km/h (2 Bft)
23.06.2024 22:10 19,2 C 67 % 1018,2 hPa 0,0 l/m 0,5 km/h (0 Bft) N-NO 31 12,9 C 19,2 C 4,8 km/h (1 Bft)
23.06.2024 22:05 19,3 C 66 % 1018,1 hPa 0,0 l/m 0,3 km/h (0 Bft) N-NO 28 12,8 C 19,3 C 3,2 km/h (1 Bft)
23.06.2024 22:00 19,4 C 66 % 1018,0 hPa 0,0 l/m 0,4 km/h (0 Bft) N-NO 30 12,9 C 19,4 C 3,2 km/h (1 Bft)
23.06.2024 21:55 19,5 C 65 % 1018,0 hPa 0,0 l/m 0,6 km/h (0 Bft) N 355 12,7 C 19,5 C 6,4 km/h (2 Bft)
23.06.2024 21:50 19,7 C 65 % 1017,9 hPa 0,0 l/m 0,7 km/h (0 Bft) N-NW 334 12,9 C 19,7 C 4,8 km/h (1 Bft)
23.06.2024 21:45 19,8 C 65 % 1017,8 hPa 0,0 l/m 1,2 km/h (1 Bft) N-NW 346 13,0 C 19,8 C 8,0 km/h (2 Bft)
23.06.2024 21:40 19,8 C 64 % 1017,8 hPa 0,0 l/m 2,6 km/h (1 Bft) NO 52 12,8 C 19,8 C 14,5 km/h (3 Bft)
23.06.2024 21:35 19,9 C 64 % 1017,7 hPa 0,0 l/m 2,8 km/h (1 Bft) N 351 12,9 C 19,9 C 9,7 km/h (2 Bft)
23.06.2024 21:30 20,1 C 63 % 1017,6 hPa 0,0 l/m 2,1 km/h (1 Bft) N 355 12,8 C 20,1 C 6,4 km/h (2 Bft)
23.06.2024 21:25 20,2 C 63 % 1017,6 hPa 0,0 l/m 0,1 km/h (0 Bft) N 5 12,9 C 20,2 C 1,6 km/h (1 Bft)
23.06.2024 21:20 20,4 C 63 % 1017,5 hPa 0,0 l/m 0,4 km/h (0 Bft) N 355 13,1 C 20,4 C 4,8 km/h (1 Bft)
23.06.2024 21:15 20,6 C 62 % 1017,5 hPa 0,0 l/m 0,7 km/h (0 Bft) N 360 13,1 C 20,6 C 9,7 km/h (2 Bft)
23.06.2024 21:10 20,8 C 62 % 1017,4 hPa 0,0 l/m 0,7 km/h (0 Bft) NO 41 13,2 C 20,8 C 4,8 km/h (1 Bft)
23.06.2024 21:05 20,9 C 62 % 1017,3 hPa 0,0 l/m 1,5 km/h (1 Bft) N-NO 32 13,3 C 20,9 C 6,4 km/h (2 Bft)
23.06.2024 21:00 21,1 C 61 % 1017,2 hPa 0,0 l/m 1,9 km/h (1 Bft) N 355 13,3 C 21,1 C 8,0 km/h (2 Bft)
23.06.2024 20:55 21,2 C 61 % 1017,2 hPa 0,0 l/m 1,1 km/h (1 Bft) N-NO 23 13,4 C 21,2 C 9,7 km/h (2 Bft)
23.06.2024 20:50 21,4 C 60 % 1017,2 hPa 0,0 l/m 1,7 km/h (1 Bft) N-NO 27 13,3 C 21,4 C 11,3 km/h (2 Bft)
23.06.2024 20:45 21,7 C 59 % 1017,1 hPa 0,0 l/m 1,9 km/h (1 Bft) NO 46 13,3 C 21,7 C 6,4 km/h (2 Bft)
23.06.2024 20:40 21,9 C 59 % 1017,0 hPa 0,0 l/m 2,8 km/h (1 Bft) N 355 13,5 C 21,9 C 8,0 km/h (2 Bft)
23.06.2024 20:35 21,9 C 58 % 1017,0 hPa 0,0 l/m 2,4 km/h (1 Bft) NO 44 13,3 C 21,9 C 12,9 km/h (3 Bft)
23.06.2024 20:30 22,1 C 58 % 1017,0 hPa 0,0 l/m 1,8 km/h (1 Bft) N 11 13,4 C 22,1 C 8,0 km/h (2 Bft)
23.06.2024 20:25 22,2 C 57 % 1016,9 hPa 0,0 l/m 2,7 km/h (1 Bft) N-NW 342 13,3 C 22,2 C 9,7 km/h (2 Bft)
23.06.2024 20:20 22,2 C 57 % 1016,9 hPa 0,0 l/m 1,3 km/h (1 Bft) N-NW 330 13,3 C 22,2 C 8,0 km/h (2 Bft)
23.06.2024 20:15 22,3 C 57 % 1016,9 hPa 0,0 l/m 0,6 km/h (0 Bft) O-NO 61 13,4 C 22,3 C 4,8 km/h (1 Bft)
23.06.2024 20:10 22,3 C 57 % 1016,9 hPa 0,0 l/m 2,8 km/h (1 Bft) N-NW 338 13,4 C 22,3 C 9,7 km/h (2 Bft)
23.06.2024 20:05 22,3 C 57 % 1016,9 hPa 0,0 l/m 3,4 km/h (1 Bft) N-NO 30 13,4 C 22,3 C 9,7 km/h (2 Bft)
23.06.2024 20:00 22,4 C 58 % 1016,9 hPa 0,0 l/m 2,8 km/h (1 Bft) O-NO 67 13,7 C 22,4 C 12,9 km/h (3 Bft)
23.06.2024 19:55 22,4 C 58 % 1016,9 hPa 0,0 l/m 2,2 km/h (1 Bft) N 355 13,7 C 22,4 C 8,0 km/h (2 Bft)
23.06.2024 19:50 22,4 C 57 % 1016,8 hPa 0,0 l/m 5,3 km/h (1 Bft) N 355 13,5 C 22,4 C 9,7 km/h (2 Bft)
23.06.2024 19:45 22,6 C 57 % 1016,8 hPa 0,0 l/m 4,9 km/h (1 Bft) N 349 13,6 C 22,6 C 16,1 km/h (3 Bft)
23.06.2024 19:40 22,7 C 57 % 1016,8 hPa 0,0 l/m 6,3 km/h (2 Bft) N 5 13,7 C 22,7 C 12,9 km/h (3 Bft)
23.06.2024 19:35 22,8 C 58 % 1016,7 hPa 0,0 l/m 6,2 km/h (2 Bft) N 5 14,1 C 22,8 C 14,5 km/h (3 Bft)
23.06.2024 19:30 22,8 C 58 % 1016,6 hPa 0,0 l/m 2,3 km/h (1 Bft) N-NW 337 14,1 C 22,8 C 6,4 km/h (2 Bft)
23.06.2024 19:25 22,9 C 58 % 1016,6 hPa 0,0 l/m 2,3 km/h (1 Bft) N-NW 342 14,2 C 22,9 C 8,0 km/h (2 Bft)
23.06.2024 19:20 22,8 C 59 % 1016,6 hPa 0,0 l/m 2,7 km/h (1 Bft) N 360 14,4 C 22,8 C 8,0 km/h (2 Bft)
23.06.2024 19:15 22,8 C 58 % 1016,6 hPa 0,0 l/m 4,1 km/h (1 Bft) N-NW 348 14,1 C 22,8 C 8,0 km/h (2 Bft)
23.06.2024 19:10 22,8 C 58 % 1016,6 hPa 0,0 l/m 2,0 km/h (1 Bft) N-NW 331 14,1 C 22,8 C 6,4 km/h (2 Bft)
23.06.2024 19:05 22,9 C 58 % 1016,6 hPa 0,0 l/m 4,3 km/h (1 Bft) NW 326 14,2 C 22,9 C 12,9 km/h (3 Bft)
23.06.2024 19:00 23,2 C 58 % 1016,5 hPa 0,0 l/m 5,5 km/h (1 Bft) W-NW 302 14,5 C 23,2 C 19,3 km/h (3 Bft)
23.06.2024 18:55 23,3 C 57 % 1016,5 hPa 0,0 l/m 1,8 km/h (1 Bft) W-NW 303 14,3 C 23,3 C 8,0 km/h (2 Bft)
23.06.2024 18:50 23,3 C 57 % 1016,5 hPa 0,0 l/m 0,4 km/h (0 Bft) W-NW 298 14,3 C 23,3 C 3,2 km/h (1 Bft)
23.06.2024 18:45 23,3 C 58 % 1016,5 hPa 0,0 l/m 1,6 km/h (1 Bft) N-NW 335 14,6 C 23,3 C 6,4 km/h (2 Bft)
23.06.2024 18:40 23,4 C 57 % 1016,5 hPa 0,0 l/m 5,5 km/h (1 Bft) N-NW 341 14,4 C 23,4 C 9,7 km/h (2 Bft)
23.06.2024 18:35 23,4 C 57 % 1016,5 hPa 0,0 l/m 4,2 km/h (1 Bft) N-NW 333 14,4 C 23,4 C 12,9 km/h (3 Bft)
23.06.2024 18:30 23,4 C 58 % 1016,5 hPa 0,0 l/m 5,0 km/h (1 Bft) N-NW 337 14,7 C 23,4 C 12,9 km/h (3 Bft)
23.06.2024 18:25 23,4 C 57 % 1016,4 hPa 0,0 l/m 4,5 km/h (1 Bft) N 5 14,4 C 23,4 C 11,3 km/h (2 Bft)
23.06.2024 18:20 23,6 C 56 % 1016,4 hPa 0,0 l/m 3,5 km/h (1 Bft) W-NW 288 14,3 C 23,6 C 8,0 km/h (2 Bft)
23.06.2024 18:15 23,8 C 56 % 1016,4 hPa 0,0 l/m 1,9 km/h (1 Bft) N 351 14,5 C 23,8 C 9,7 km/h (2 Bft)
23.06.2024 18:10 23,8 C 55 % 1016,4 hPa 0,0 l/m 2,2 km/h (1 Bft) N 355 14,2 C 23,8 C 4,8 km/h (1 Bft)
23.06.2024 18:05 23,8 C 56 % 1016,4 hPa 0,0 l/m 2,3 km/h (1 Bft) NO 47 14,5 C 23,8 C 8,0 km/h (2 Bft)
23.06.2024 18:00 23,8 C 56 % 1016,4 hPa 0,0 l/m 2,2 km/h (1 Bft) N 5 14,5 C 23,8 C 9,7 km/h (2 Bft)
23.06.2024 17:55 23,7 C 56 % 1016,4 hPa 0,0 l/m 3,0 km/h (1 Bft) N 351 14,4 C 23,7 C 9,7 km/h (2 Bft)
23.06.2024 17:50 23,7 C 57 % 1016,4 hPa 0,0 l/m 2,8 km/h (1 Bft) N-NW 341 14,7 C 23,7 C 8,0 km/h (2 Bft)
23.06.2024 17:45 23,6 C 57 % 1016,4 hPa 0,0 l/m 2,2 km/h (1 Bft) NW 307 14,6 C 23,6 C 6,4 km/h (2 Bft)
23.06.2024 17:40 23,5 C 57 % 1016,5 hPa 0,0 l/m 3,8 km/h (1 Bft) NW 321 14,5 C 23,5 C 14,5 km/h (3 Bft)
23.06.2024 17:35 23,5 C 58 % 1016,5 hPa 0,0 l/m 1,6 km/h (1 Bft) N-NW 341 14,7 C 23,5 C 6,4 km/h (2 Bft)
23.06.2024 17:30 23,4 C 59 % 1016,5 hPa 0,0 l/m 2,8 km/h (1 Bft) N 5 14,9 C 23,4 C 8,0 km/h (2 Bft)
23.06.2024 17:25 23,3 C 59 % 1016,5 hPa 0,0 l/m 1,4 km/h (1 Bft) N 349 14,8 C 23,3 C 4,8 km/h (1 Bft)
23.06.2024 17:20 23,2 C 59 % 1016,5 hPa 0,0 l/m 3,4 km/h (1 Bft) N-NW 327 14,7 C 23,2 C 8,0 km/h (2 Bft)
23.06.2024 17:15 23,1 C 60 % 1016,5 hPa 0,0 l/m 4,7 km/h (1 Bft) N-NW 339 14,9 C 23,1 C 14,5 km/h (3 Bft)
23.06.2024 17:10 23,2 C 59 % 1016,5 hPa 0,0 l/m 4,3 km/h (1 Bft) N 9 14,7 C 23,2 C 9,7 km/h (2 Bft)
23.06.2024 17:05 23,3 C 59 % 1016,5 hPa 0,0 l/m 5,0 km/h (1 Bft) N-NW 341 14,8 C 23,3 C 12,9 km/h (3 Bft)
23.06.2024 17:00 23,3 C 58 % 1016,4 hPa 0,0 l/m 7,3 km/h (2 Bft) NW 321 14,6 C 23,3 C 14,5 km/h (3 Bft)
23.06.2024 16:55 23,4 C 56 % 1016,4 hPa 0,0 l/m 5,4 km/h (1 Bft) NW 315 14,1 C 23,4 C 14,5 km/h (3 Bft)
23.06.2024 16:50 23,5 C 57 % 1016,5 hPa 0,0 l/m 4,3 km/h (1 Bft) NW 318 14,5 C 23,5 C 12,9 km/h (3 Bft)
23.06.2024 16:45 23,6 C 58 % 1016,5 hPa 0,0 l/m 4,3 km/h (1 Bft) W-NW 296 14,8 C 23,6 C 14,5 km/h (3 Bft)
23.06.2024 16:40 23,6 C 58 % 1016,4 hPa 0,0 l/m 4,9 km/h (1 Bft) NW 309 14,8 C 23,6 C 19,3 km/h (3 Bft)
23.06.2024 16:35 23,5 C 59 % 1016,5 hPa 0,0 l/m 2,7 km/h (1 Bft) N 5 15,0 C 23,5 C 17,7 km/h (3 Bft)
23.06.2024 16:30 23,3 C 60 % 1016,5 hPa 0,0 l/m 1,9 km/h (1 Bft) N-NO 22 15,1 C 23,3 C 6,4 km/h (2 Bft)
23.06.2024 16:25 23,2 C 60 % 1016,6 hPa 0,0 l/m 4,4 km/h (1 Bft) N 355 15,0 C 23,2 C 8,0 km/h (2 Bft)
23.06.2024 16:20 22,9 C 61 % 1016,6 hPa 0,0 l/m 4,2 km/h (1 Bft) N 355 15,0 C 22,9 C 12,9 km/h (3 Bft)
23.06.2024 16:15 22,7 C 61 % 1016,6 hPa 0,0 l/m 3,4 km/h (1 Bft) NW 313 14,8 C 22,7 C 8,0 km/h (2 Bft)
23.06.2024 16:10 22,7 C 61 % 1016,6 hPa 0,0 l/m 3,5 km/h (1 Bft) N-NW 334 14,8 C 22,7 C 11,3 km/h (2 Bft)
23.06.2024 16:05 22,8 C 60 % 1016,7 hPa 0,0 l/m 1,9 km/h (1 Bft) N-NW 339 14,6 C 22,8 C 12,9 km/h (3 Bft)
23.06.2024 16:00 22,9 C 59 % 1016,7 hPa 0,0 l/m 4,2 km/h (1 Bft) N 5 14,5 C 22,9 C 8,0 km/h (2 Bft)
23.06.2024 15:55 23,1 C 59 % 1016,6 hPa 0,0 l/m 3,5 km/h (1 Bft) NW 309 14,6 C 23,1 C 12,9 km/h (3 Bft)
23.06.2024 15:50 23,3 C 59 % 1016,6 hPa 0,0 l/m 4,9 km/h (1 Bft) N 360 14,8 C 23,3 C 12,9 km/h (3 Bft)
23.06.2024 15:45 23,6 C 59 % 1016,7 hPa 0,0 l/m 5,2 km/h (1 Bft) N-NW 346 15,1 C 23,6 C 14,5 km/h (3 Bft)
23.06.2024 15:40 23,7 C 59 % 1016,7 hPa 0,0 l/m 1,6 km/h (1 Bft) NW 309 15,2 C 23,7 C 12,9 km/h (3 Bft)
23.06.2024 15:35 23,6 C 60 % 1016,6 hPa 0,0 l/m 1,6 km/h (1 Bft) O-SO 111 15,4 C 23,6 C 6,4 km/h (2 Bft)
23.06.2024 15:30 23,4 C 59 % 1016,6 hPa 0,0 l/m 1,6 km/h (1 Bft) O-NO 63 14,9 C 23,4 C 6,4 km/h (2 Bft)
23.06.2024 15:25 23,7 C 58 % 1016,6 hPa 0,0 l/m 2,5 km/h (1 Bft) N-NW 338 14,9 C 23,7 C 8,0 km/h (2 Bft)
23.06.2024 15:20 23,9 C 59 % 1016,6 hPa 0,0 l/m 3,4 km/h (1 Bft) O-NO 63 15,4 C 23,9 C 12,9 km/h (3 Bft)
23.06.2024 15:15 23,8 C 58 % 1016,6 hPa 0,0 l/m 4,4 km/h (1 Bft) N-NO 22 15,0 C 23,8 C 9,7 km/h (2 Bft)
23.06.2024 15:10 24,0 C 58 % 1016,5 hPa 0,0 l/m 5,3 km/h (1 Bft) N-NW 332 15,2 C 24,0 C 9,7 km/h (2 Bft)
23.06.2024 15:05 23,8 C 58 % 1016,5 hPa 0,0 l/m 4,3 km/h (1 Bft) N-NW 339 15,0 C 23,8 C 12,9 km/h (3 Bft)
23.06.2024 15:00 23,6 C 58 % 1016,5 hPa 0,0 l/m 5,4 km/h (1 Bft) N-NW 348 14,8 C 23,6 C 19,3 km/h (3 Bft)
23.06.2024 14:55 23,6 C 58 % 1016,5 hPa 0,0 l/m 2,4 km/h (1 Bft) N 351 14,8 C 23,6 C 9,7 km/h (2 Bft)
23.06.2024 14:50 23,4 C 60 % 1016,6 hPa 0,0 l/m 3,6 km/h (1 Bft) N 350 15,2 C 23,4 C 11,3 km/h (2 Bft)
23.06.2024 14:45 23,4 C 61 % 1016,5 hPa 0,0 l/m 1,5 km/h (1 Bft) N 5 15,4 C 23,4 C 8,0 km/h (2 Bft)
23.06.2024 14:40 23,3 C 62 % 1016,6 hPa 0,0 l/m 4,4 km/h (1 Bft) N 5 15,6 C 23,3 C 8,0 km/h (2 Bft)
23.06.2024 14:35 23,1 C 63 % 1016,6 hPa 0,0 l/m 5,7 km/h (1 Bft) W-NW 300 15,7 C 23,1 C 12,9 km/h (3 Bft)
23.06.2024 14:30 22,7 C 62 % 1016,6 hPa 0,0 l/m 3,0 km/h (1 Bft) W-SW 254 15,0 C 22,7 C 11,3 km/h (2 Bft)
23.06.2024 14:25 22,6 C 61 % 1016,7 hPa 0,0 l/m 3,8 km/h (1 Bft) W-NW 294 14,7 C 22,6 C 11,3 km/h (2 Bft)
23.06.2024 14:20 22,7 C 61 % 1016,7 hPa 0,0 l/m 2,3 km/h (1 Bft) N-NW 342 14,8 C 22,7 C 4,8 km/h (1 Bft)
23.06.2024 14:15 23,0 C 61 % 1016,8 hPa 0,0 l/m 5,7 km/h (1 Bft) N-NW 339 15,1 C 23,0 C 12,9 km/h (3 Bft)
23.06.2024 14:10 23,2 C 62 % 1016,7 hPa 0,0 l/m 3,3 km/h (1 Bft) NW 315 15,5 C 23,2 C 11,3 km/h (2 Bft)
23.06.2024 14:05 23,2 C 62 % 1016,7 hPa 0,0 l/m 6,2 km/h (2 Bft) W-NW 301 15,5 C 23,2 C 16,1 km/h (3 Bft)
23.06.2024 14:00 23,2 C 63 % 1016,7 hPa 0,0 l/m 4,4 km/h (1 Bft) W-NW 293 15,8 C 23,2 C 14,5 km/h (3 Bft)
23.06.2024 13:55 23,3 C 62 % 1016,8 hPa 0,0 l/m 3,7 km/h (1 Bft) N 355 15,6 C 23,3 C 11,3 km/h (2 Bft)
23.06.2024 13:50 23,4 C 62 % 1016,7 hPa 0,0 l/m 5,7 km/h (1 Bft) N-NW 346 15,7 C 23,4 C 12,9 km/h (3 Bft)
23.06.2024 13:45 23,6 C 63 % 1016,7 hPa 0,0 l/m 7,5 km/h (2 Bft) W-NW 282 16,1 C 23,6 C 16,1 km/h (3 Bft)
23.06.2024 13:40 23,5 C 64 % 1016,6 hPa 0,0 l/m 6,8 km/h (2 Bft) W-NW 295 16,3 C 23,5 C 16,1 km/h (3 Bft)
23.06.2024 13:35 23,3 C 64 % 1016,7 hPa 0,0 l/m 3,1 km/h (1 Bft) N-NW 343 16,1 C 23,3 C 12,9 km/h (3 Bft)
23.06.2024 13:30 23,1 C 64 % 1016,7 hPa 0,0 l/m 4,8 km/h (1 Bft) W-NW 284 15,9 C 23,1 C 12,9 km/h (3 Bft)
23.06.2024 13:25 22,9 C 63 % 1016,7 hPa 0,0 l/m 5,9 km/h (2 Bft) NW 311 15,5 C 22,9 C 16,1 km/h (3 Bft)
23.06.2024 13:20 23,1 C 63 % 1016,8 hPa 0,0 l/m 5,3 km/h (1 Bft) N-NW 328 15,7 C 23,1 C 12,9 km/h (3 Bft)
23.06.2024 13:15 23,3 C 64 % 1016,7 hPa 0,0 l/m 1,1 km/h (1 Bft) N 11 16,1 C 23,3 C 6,4 km/h (2 Bft)
23.06.2024 13:10 23,2 C 64 % 1016,8 hPa 0,0 l/m 3,1 km/h (1 Bft) NW 313 16,0 C 23,2 C 6,4 km/h (2 Bft)
23.06.2024 13:05 23,1 C 65 % 1016,8 hPa 0,0 l/m 3,9 km/h (1 Bft) NW 315 16,2 C 23,1 C 12,9 km/h (3 Bft)
23.06.2024 13:00 22,8 C 65 % 1016,8 hPa 0,0 l/m 4,2 km/h (1 Bft) N-NO 13 15,9 C 22,8 C 8,0 km/h (2 Bft)
23.06.2024 12:55 22,8 C 65 % 1016,8 hPa 0,0 l/m 3,2 km/h (1 Bft) O-NO 57 15,9 C 22,8 C 11,3 km/h (2 Bft)
23.06.2024 12:50 22,6 C 66 % 1016,9 hPa 0,0 l/m 1,5 km/h (1 Bft) W-NW 292 15,9 C 22,6 C 6,4 km/h (2 Bft)
23.06.2024 12:45 22,4 C 66 % 1017,0 hPa 0,0 l/m 1,9 km/h (1 Bft) W-NW 294 15,7 C 22,4 C 6,4 km/h (2 Bft)
23.06.2024 12:40 21,9 C 67 % 1017,0 hPa 0,0 l/m 1,9 km/h (1 Bft) NW 306 15,5 C 21,9 C 6,4 km/h (2 Bft)
23.06.2024 12:35 21,6 C 67 % 1017,0 hPa 0,0 l/m 1,2 km/h (1 Bft) SO 129 15,2 C 21,6 C 4,8 km/h (1 Bft)
23.06.2024 12:30 21,6 C 67 % 1017,1 hPa 0,0 l/m 1,3 km/h (1 Bft) N 5 15,2 C 21,6 C 6,4 km/h (2 Bft)
23.06.2024 12:25 21,7 C 67 % 1017,1 hPa 0,0 l/m 2,9 km/h (1 Bft) N 360 15,3 C 21,7 C 9,7 km/h (2 Bft)
23.06.2024 12:20 21,8 C 68 % 1017,1 hPa 0,0 l/m 2,5 km/h (1 Bft) W 279 15,6 C 21,8 C 6,4 km/h (2 Bft)
23.06.2024 12:15 21,8 C 68 % 1017,2 hPa 0,0 l/m 2,1 km/h (1 Bft) W-NW 295 15,6 C 21,8 C 6,4 km/h (2 Bft)
23.06.2024 12:10 21,8 C 68 % 1017,2 hPa 0,0 l/m 6,3 km/h (2 Bft) W-NW 294 15,6 C 21,8 C 14,5 km/h (3 Bft)
23.06.2024 12:05 21,8 C 68 % 1017,2 hPa 0,0 l/m 5,2 km/h (1 Bft) W-NW 284 15,6 C 21,8 C 12,9 km/h (3 Bft)
23.06.2024 12:00 21,7 C 68 % 1017,4 hPa 0,0 l/m 3,7 km/h (1 Bft) N 355 15,5 C 21,7 C 11,3 km/h (2 Bft)
23.06.2024 11:55 21,7 C 68 % 1017,3 hPa 0,0 l/m 0,6 km/h (0 Bft) N 350 15,5 C 21,7 C 4,8 km/h (1 Bft)
23.06.2024 11:50 21,6 C 68 % 1017,4 hPa 0,0 l/m 0,7 km/h (0 Bft) N 355 15,4 C 21,6 C 4,8 km/h (1 Bft)
23.06.2024 11:45 21,7 C 68 % 1017,4 hPa 0,0 l/m 2,0 km/h (1 Bft) N 355 15,5 C 21,7 C 4,8 km/h (1 Bft)
23.06.2024 11:40 21,8 C 67 % 1017,4 hPa 0,0 l/m 0,5 km/h (0 Bft) W 261 15,4 C 21,8 C 4,8 km/h (1 Bft)
23.06.2024 11:35 21,8 C 68 % 1017,4 hPa 0,0 l/m 0,0 km/h (0 Bft) O-NO 59 15,6 C 21,8 C 1,6 km/h (1 Bft)
23.06.2024 11:30 21,7 C 68 % 1017,3 hPa 0,0 l/m 1,5 km/h (1 Bft) O-NO 66 15,5 C 21,7 C 6,4 km/h (2 Bft)
23.06.2024 11:25 21,7 C 69 % 1017,3 hPa 0,0 l/m 1,0 km/h (0 Bft) N 355 15,8 C 21,7 C 4,8 km/h (1 Bft)
23.06.2024 11:20 21,7 C 69 % 1017,3 hPa 0,0 l/m 2,6 km/h (1 Bft) NW 306 15,8 C 21,7 C 12,9 km/h (3 Bft)
23.06.2024 11:15 21,8 C 70 % 1017,3 hPa 0,0 l/m 1,6 km/h (1 Bft) SO 142 16,1 C 21,8 C 9,7 km/h (2 Bft)
23.06.2024 11:10 21,6 C 71 % 1017,3 hPa 0,0 l/m 2,4 km/h (1 Bft) NO 49 16,1 C 21,6 C 4,8 km/h (1 Bft)
23.06.2024 11:05 21,1 C 73 % 1017,3 hPa 0,0 l/m 4,2 km/h (1 Bft) O-NO 60 16,1 C 21,1 C 8,0 km/h (2 Bft)
23.06.2024 11:00 20,7 C 74 % 1017,2 hPa 0,0 l/m 1,8 km/h (1 Bft) N-NW 336 15,9 C 20,7 C 9,7 km/h (2 Bft)
23.06.2024 10:55 20,2 C 74 % 1017,2 hPa 0,0 l/m 1,4 km/h (1 Bft) N 5 15,4 C 20,2 C 4,8 km/h (1 Bft)
23.06.2024 10:50 20,0 C 74 % 1017,2 hPa 0,0 l/m 3,8 km/h (1 Bft) SO 128 15,2 C 20,0 C 8,0 km/h (2 Bft)
23.06.2024 10:45 19,9 C 74 % 1017,2 hPa 0,0 l/m 5,6 km/h (1 Bft) N-NW 336 15,1 C 19,9 C 12,9 km/h (3 Bft)
23.06.2024 10:40 19,9 C 75 % 1017,2 hPa 0,0 l/m 0,3 km/h (0 Bft) NO 52 15,3 C 19,9 C 3,2 km/h (1 Bft)
23.06.2024 10:35 19,7 C 75 % 1017,2 hPa 0,0 l/m 3,0 km/h (1 Bft) O-NO 61 15,1 C 19,7 C 9,7 km/h (2 Bft)
23.06.2024 10:30 19,8 C 74 % 1017,2 hPa 0,0 l/m 4,8 km/h (1 Bft) N-NW 343 15,0 C 19,8 C 9,7 km/h (2 Bft)
23.06.2024 10:25 20,1 C 75 % 1017,2 hPa 0,0 l/m 5,2 km/h (1 Bft) N-NW 344 15,5 C 20,1 C 9,7 km/h (2 Bft)
23.06.2024 10:20 20,2 C 75 % 1017,2 hPa 0,0 l/m 2,2 km/h (1 Bft) NW 321 15,6 C 20,2 C 6,4 km/h (2 Bft)
23.06.2024 10:15 20,2 C 76 % 1017,2 hPa 0,0 l/m 3,1 km/h (1 Bft) N-NW 345 15,8 C 20,2 C 11,3 km/h (2 Bft)
23.06.2024 10:10 20,3 C 76 % 1017,2 hPa 0,0 l/m 1,6 km/h (1 Bft) N 355 15,9 C 20,3 C 11,3 km/h (2 Bft)
23.06.2024 10:05 20,5 C 77 % 1017,2 hPa 0,0 l/m 3,8 km/h (1 Bft) N-NW 346 16,3 C 20,5 C 8,0 km/h (2 Bft)
23.06.2024 10:00 20,4 C 79 % 1017,1 hPa 0,0 l/m 3,6 km/h (1 Bft) N 355 16,6 C 20,4 C 9,7 km/h (2 Bft)
23.06.2024 09:55 20,3 C 80 % 1017,1 hPa 0,0 l/m 3,8 km/h (1 Bft) N-NW 329 16,7 C 20,3 C 9,7 km/h (2 Bft)
23.06.2024 09:50 20,0 C 82 % 1017,1 hPa 0,0 l/m 2,0 km/h (1 Bft) N 355 16,8 C 20,0 C 8,0 km/h (2 Bft)
23.06.2024 09:45 19,4 C 83 % 1017,2 hPa 0,0 l/m 1,6 km/h (1 Bft) N 5 16,4 C 19,4 C 4,8 km/h (1 Bft)
23.06.2024 09:40 19,0 C 83 % 1017,2 hPa 0,0 l/m 1,1 km/h (1 Bft) W-NW 292 16,0 C 19,0 C 4,8 km/h (1 Bft)
23.06.2024 09:35 18,8 C 84 % 1017,2 hPa 0,0 l/m 1,0 km/h (0 Bft) NW 315 16,0 C 18,8 C 4,8 km/h (1 Bft)
23.06.2024 09:30 18,7 C 85 % 1017,2 hPa 0,0 l/m 1,0 km/h (0 Bft) W-NW 294 16,1 C 18,7 C 4,8 km/h (1 Bft)
23.06.2024 09:25 18,5 C 85 % 1017,2 hPa 0,0 l/m 0,4 km/h (0 Bft) W-NW 293 15,9 C 18,5 C 4,8 km/h (1 Bft)
23.06.2024 09:20 18,3 C 85 % 1017,2 hPa 0,0 l/m 2,2 km/h (1 Bft) NW 304 15,7 C 18,3 C 6,4 km/h (2 Bft)
23.06.2024 09:15 18,2 C 86 % 1017,2 hPa 0,0 l/m 3,7 km/h (1 Bft) W-NW 289 15,8 C 18,2 C 9,7 km/h (2 Bft)
23.06.2024 09:10 18,1 C 86 % 1017,2 hPa 0,0 l/m 2,6 km/h (1 Bft) W 277 15,7 C 18,1 C 8,0 km/h (2 Bft)
23.06.2024 09:05 17,9 C 86 % 1017,2 hPa 0,0 l/m 2,5 km/h (1 Bft) NW 311 15,5 C 17,9 C 9,7 km/h (2 Bft)
23.06.2024 09:00 17,8 C 86 % 1017,2 hPa 0,0 l/m 1,7 km/h (1 Bft) W-NW 296 15,4 C 17,8 C 8,0 km/h (2 Bft)
23.06.2024 08:55 17,8 C 86 % 1017,2 hPa 0,0 l/m 3,2 km/h (1 Bft) NW 315 15,4 C 17,8 C 6,4 km/h (2 Bft)
23.06.2024 08:50 17,7 C 86 % 1017,1 hPa 0,0 l/m 3,4 km/h (1 Bft) NW 311 15,3 C 17,7 C 6,4 km/h (2 Bft)
23.06.2024 08:45 17,7 C 87 % 1017,0 hPa 0,0 l/m 1,5 km/h (1 Bft) W-NW 300 15,5 C 17,7 C 6,4 km/h (2 Bft)
23.06.2024 08:40 17,7 C 87 % 1016,9 hPa 0,0 l/m 0,5 km/h (0 Bft) W-NW 302 15,5 C 17,7 C 4,8 km/h (1 Bft)
23.06.2024 08:35 17,6 C 87 % 1016,9 hPa 0,0 l/m 1,1 km/h (1 Bft) W-NW 283 15,4 C 17,6 C 4,8 km/h (1 Bft)
23.06.2024 08:30 17,7 C 87 % 1016,9 hPa 0,0 l/m 1,0 km/h (0 Bft) W-NW 300 15,5 C 17,7 C 4,8 km/h (1 Bft)
23.06.2024 08:25 17,7 C 87 % 1016,9 hPa 0,0 l/m 0,4 km/h (0 Bft) W-NW 293 15,5 C 17,7 C 4,8 km/h (1 Bft)
23.06.2024 08:20 17,7 C 88 % 1016,7 hPa 0,0 l/m 0,1 km/h (0 Bft) W-NW 303 15,7 C 17,7 C 3,2 km/h (1 Bft)
23.06.2024 08:15 17,6 C 88 % 1016,7 hPa 0,0 l/m 0,0 km/h (0 Bft) W 263 15,6 C 17,6 C 0,0 km/h (0 Bft)
23.06.2024 08:10 17,5 C 88 % 1016,7 hPa 0,0 l/m 0,3 km/h (0 Bft) W 262 15,5 C 17,5 C 3,2 km/h (1 Bft)
23.06.2024 08:05 17,3 C 89 % 1016,6 hPa 0,0 l/m 0,6 km/h (0 Bft) W 261 15,5 C 17,3 C 4,8 km/h (1 Bft)
23.06.2024 08:00 17,2 C 89 % 1016,4 hPa 0,0 l/m 0,0 km/h (0 Bft) SW 228 15,4 C 17,2 C 0,0 km/h (0 Bft)
23.06.2024 07:55 17,1 C 90 % 1016,4 hPa 0,0 l/m 0,0 km/h (0 Bft) SW 227 15,4 C 17,1 C 1,6 km/h (1 Bft)
23.06.2024 07:50 16,9 C 90 % 1016,4 hPa 0,0 l/m 0,0 km/h (0 Bft) W 270 15,2 C 16,9 C 0,0 km/h (0 Bft)
23.06.2024 07:45 16,8 C 90 % 1016,4 hPa 0,0 l/m 0,1 km/h (0 Bft) W 270 15,1 C 16,8 C 3,2 km/h (1 Bft)
23.06.2024 07:40 16,7 C 90 % 1016,4 hPa 0,0 l/m 0,0 km/h (0 Bft) SW 227 15,0 C 16,7 C 0,0 km/h (0 Bft)
23.06.2024 07:35 16,7 C 91 % 1016,3 hPa 0,0 l/m 1,1 km/h (1 Bft) SW 219 15,2 C 16,7 C 4,8 km/h (1 Bft)
23.06.2024 07:30 16,5 C 91 % 1016,3 hPa 0,0 l/m 0,9 km/h (0 Bft) SW 217 15,0 C 16,5 C 4,8 km/h (1 Bft)
23.06.2024 07:25 16,4 C 91 % 1016,4 hPa 0,0 l/m 0,0 km/h (0 Bft) W 275 14,9 C 16,4 C 0,0 km/h (0 Bft)
23.06.2024 07:20 16,3 C 91 % 1016,3 hPa 0,0 l/m 0,0 km/h (0 Bft) W 275 14,8 C 16,3 C 0,0 km/h (0 Bft)
23.06.2024 07:15 16,2 C 91 % 1016,3 hPa 0,0 l/m 0,0 km/h (0 Bft) W 275 14,7 C 16,2 C 0,0 km/h (0 Bft)
23.06.2024 07:10 16,1 C 91 % 1016,2 hPa 0,0 l/m 0,0 km/h (0 Bft) W 275 14,6 C 16,1 C 0,0 km/h (0 Bft)
23.06.2024 07:05 15,9 C 91 % 1016,2 hPa 0,0 l/m 0,0 km/h (0 Bft) NW 304 14,4 C 15,9 C 0,0 km/h (0 Bft)
23.06.2024 07:00 15,8 C 92 % 1016,2 hPa 0,0 l/m 0,1 km/h (0 Bft) NW 304 14,5 C 15,8 C 1,6 km/h (1 Bft)
23.06.2024 06:55 15,7 C 92 % 1016,1 hPa 0,0 l/m 0,1 km/h (0 Bft) NW 304 14,4 C 15,7 C 1,6 km/h (1 Bft)
23.06.2024 06:50 15,6 C 92 % 1016,1 hPa 0,0 l/m 0,2 km/h (0 Bft) NW 304 14,3 C 15,6 C 3,2 km/h (1 Bft)
23.06.2024 06:45 15,6 C 92 % 1016,0 hPa 0,0 l/m 0,0 km/h (0 Bft) NW 306 14,3 C 15,6 C 1,6 km/h (1 Bft)
23.06.2024 06:40 15,5 C 92 % 1015,9 hPa 0,0 l/m 0,0 km/h (0 Bft) NW 306 14,2 C 15,5 C 0,0 km/h (0 Bft)
23.06.2024 06:35 15,4 C 92 % 1015,8 hPa 0,0 l/m 0,2 km/h (0 Bft) NW 306 14,1 C 15,4 C 3,2 km/h (1 Bft)
23.06.2024 06:30 15,3 C 92 % 1015,8 hPa 0,0 l/m 0,1 km/h (0 Bft) NW 306 14,0 C 15,3 C 3,2 km/h (1 Bft)
23.06.2024 06:25 15,3 C 92 % 1015,8 hPa 0,0 l/m 0,0 km/h (0 Bft) NW 306 14,0 C 15,3 C 0,0 km/h (0 Bft)
23.06.2024 06:20 15,2 C 92 % 1015,7 hPa 0,0 l/m 0,0 km/h (0 Bft) NW 306 13,9 C 15,2 C 0,0 km/h (0 Bft)
23.06.2024 06:15 15,2 C 92 % 1015,7 hPa 0,0 l/m 0,0 km/h (0 Bft) NW 306 13,9 C 15,2 C 0,0 km/h (0 Bft)
23.06.2024 06:10 15,2 C 91 % 1015,6 hPa 0,0 l/m 0,0 km/h (0 Bft) NW 306 13,7 C 15,2 C 0,0 km/h (0 Bft)
23.06.2024 06:05 15,2 C 91 % 1015,6 hPa 0,0 l/m 0,0 km/h (0 Bft) NW 306 13,7 C 15,2 C 0,0 km/h (0 Bft)
23.06.2024 06:00 15,2 C 91 % 1015,5 hPa 0,0 l/m 0,0 km/h (0 Bft) NW 306 13,7 C 15,2 C 0,0 km/h (0 Bft)
23.06.2024 05:55 15,1 C 91 % 1015,4 hPa 0,0 l/m 0,0 km/h (0 Bft) NW 306 13,6 C 15,1 C 0,0 km/h (0 Bft)
23.06.2024 05:50 15,1 C 91 % 1015,4 hPa 0,0 l/m 0,0 km/h (0 Bft) NW 306 13,6 C 15,1 C 0,0 km/h (0 Bft)
23.06.2024 05:45 15,1 C 91 % 1015,2 hPa 0,0 l/m 0,0 km/h (0 Bft) NW 306 13,6 C 15,1 C 0,0 km/h (0 Bft)
23.06.2024 05:40 15,2 C 91 % 1015,2 hPa 0,0 l/m 0,0 km/h (0 Bft) NW 306 13,7 C 15,2 C 0,0 km/h (0 Bft)
23.06.2024 05:35 15,2 C 91 % 1015,2 hPa 0,0 l/m 0,0 km/h (0 Bft) NW 306 13,7 C 15,2 C 0,0 km/h (0 Bft)
23.06.2024 05:30 15,2 C 91 % 1015,2 hPa 0,0 l/m 0,0 km/h (0 Bft) NW 306 13,7 C 15,2 C 0,0 km/h (0 Bft)
23.06.2024 05:25 15,2 C 91 % 1015,2 hPa 0,0 l/m 0,0 km/h (0 Bft) NW 306 13,7 C 15,2 C 0,0 km/h (0 Bft)
23.06.2024 05:20 15,3 C 91 % 1015,1 hPa 0,0 l/m 0,0 km/h (0 Bft) NW 306 13,8 C 15,3 C 0,0 km/h (0 Bft)
23.06.2024 05:15 15,3 C 91 % 1015,1 hPa 0,0 l/m 0,0 km/h (0 Bft) NW 306 13,8 C 15,3 C 0,0 km/h (0 Bft)
23.06.2024 05:10 15,3 C 91 % 1015,2 hPa 0,0 l/m 0,0 km/h (0 Bft) NW 306 13,8 C 15,3 C 0,0 km/h (0 Bft)
23.06.2024 05:05 15,3 C 90 % 1015,1 hPa 0,0 l/m 0,0 km/h (0 Bft) NW 306 13,7 C 15,3 C 0,0 km/h (0 Bft)
23.06.2024 05:00 15,3 C 90 % 1015,0 hPa 0,0 l/m 0,0 km/h (0 Bft) NW 306 13,7 C 15,3 C 0,0 km/h (0 Bft)
23.06.2024 04:55 15,3 C 90 % 1015,0 hPa 0,0 l/m 0,0 km/h (0 Bft) NW 306 13,7 C 15,3 C 0,0 km/h (0 Bft)
23.06.2024 04:50 15,3 C 90 % 1015,0 hPa 0,0 l/m 0,0 km/h (0 Bft) NW 306 13,7 C 15,3 C 0,0 km/h (0 Bft)
23.06.2024 04:45 15,3 C 90 % 1014,9 hPa 0,0 l/m 0,0 km/h (0 Bft) NW 306 13,7 C 15,3 C 1,6 km/h (1 Bft)
23.06.2024 04:40 15,4 C 90 % 1014,9 hPa 0,0 l/m 0,0 km/h (0 Bft) NW 306 13,8 C 15,4 C 0,0 km/h (0 Bft)
23.06.2024 04:35 15,4 C 90 % 1014,8 hPa 0,0 l/m 0,0 km/h (0 Bft) NW 306 13,8 C 15,4 C 0,0 km/h (0 Bft)
23.06.2024 04:30 15,4 C 90 % 1014,8 hPa 0,0 l/m 0,0 km/h (0 Bft) NW 306 13,8 C 15,4 C 0,0 km/h (0 Bft)
23.06.2024 04:25 15,4 C 90 % 1014,7 hPa 0,0 l/m 0,0 km/h (0 Bft) NW 306 13,8 C 15,4 C 0,0 km/h (0 Bft)
23.06.2024 04:20 15,5 C 90 % 1014,8 hPa 0,0 l/m 0,0 km/h (0 Bft) NW 306 13,9 C 15,5 C 0,0 km/h (0 Bft)
23.06.2024 04:15 15,5 C 90 % 1014,8 hPa 0,0 l/m 0,0 km/h (0 Bft) NW 306 13,9 C 15,5 C 0,0 km/h (0 Bft)
23.06.2024 04:10 15,5 C 90 % 1014,7 hPa 0,0 l/m 0,0 km/h (0 Bft) NW 306 13,9 C 15,5 C 0,0 km/h (0 Bft)
23.06.2024 04:05 15,5 C 90 % 1014,7 hPa 0,0 l/m 0,0 km/h (0 Bft) NW 306 13,9 C 15,5 C 0,0 km/h (0 Bft)
23.06.2024 04:00 15,6 C 90 % 1014,6 hPa 0,0 l/m 0,3 km/h (0 Bft) NW 306 14,0 C 15,6 C 3,2 km/h (1 Bft)
23.06.2024 03:55 15,6 C 90 % 1014,6 hPa 0,0 l/m 0,0 km/h (0 Bft) NW 304 14,0 C 15,6 C 0,0 km/h (0 Bft)
23.06.2024 03:50 15,6 C 89 % 1014,7 hPa 0,0 l/m 0,3 km/h (0 Bft) NW 304 13,8 C 15,6 C 3,2 km/h (1 Bft)
23.06.2024 03:45 15,6 C 89 % 1014,7 hPa 0,0 l/m 0,2 km/h (0 Bft) NW 309 13,8 C 15,6 C 3,2 km/h (1 Bft)
23.06.2024 03:40 15,7 C 89 % 1014,7 hPa 0,0 l/m 0,7 km/h (0 Bft) NW 317 13,9 C 15,7 C 4,8 km/h (1 Bft)
23.06.2024 03:35 15,7 C 89 % 1014,7 hPa 0,0 l/m 0,0 km/h (0 Bft) NW 318 13,9 C 15,7 C 1,6 km/h (1 Bft)
23.06.2024 03:30 15,8 C 89 % 1014,7 hPa 0,0 l/m 0,0 km/h (0 Bft) NW 305 14,0 C 15,8 C 0,0 km/h (0 Bft)
23.06.2024 03:25 15,8 C 89 % 1014,8 hPa 0,0 l/m 0,0 km/h (0 Bft) NW 305 14,0 C 15,8 C 0,0 km/h (0 Bft)
23.06.2024 03:20 15,8 C 89 % 1014,8 hPa 0,0 l/m 0,0 km/h (0 Bft) NW 305 14,0 C 15,8 C 0,0 km/h (0 Bft)
23.06.2024 03:15 15,8 C 89 % 1014,8 hPa 0,0 l/m 0,0 km/h (0 Bft) NW 305 14,0 C 15,8 C 1,6 km/h (1 Bft)
23.06.2024 03:10 15,8 C 89 % 1014,8 hPa 0,0 l/m 0,0 km/h (0 Bft) S-SW 209 14,0 C 15,8 C 0,0 km/h (0 Bft)
23.06.2024 03:05 15,8 C 89 % 1014,7 hPa 0,0 l/m 0,1 km/h (0 Bft) S-SW 209 14,0 C 15,8 C 3,2 km/h (1 Bft)
23.06.2024 03:00 15,9 C 89 % 1014,7 hPa 0,0 l/m 0,0 km/h (0 Bft) W 263 14,1 C 15,9 C 0,0 km/h (0 Bft)
_ Min-Zeit 02:20 18:10 03:55 - 03:00 - - 02:20 02:20 03:00
Minimum _ 14,1 C 55 % 1014,6 hPa - 0,0 km/h (0 Bft) - - 11,4 C 14,1 C 0,0 km/h (0 Bft)
_ Max-Zeit 15:10 06:15 00:10 03:00 13:45 - - 09:50 15:10 15:00
Maximum _ 24,0 C 92 % 1018,7 hPa 0,0 l/m 7,5 km/h
W-NW (2 Bft)
- - 16,8 C 24,0 C 19,3 km/h
W-NW (3 Bft)
Durchschnitt _ 19,2 C 74 % 1016,7 hPa #0,0 l/m 1,6 km/h (1 Bft) N - 14,2 C 19,2 C 5,4 km/h (1 Bft)